createdAt,value
2023-01-13T00:00:39.252Z,52.08
2023-01-13T00:10:46.595Z,52.11
2023-01-13T00:20:53.884Z,52.11
2023-01-13T00:31:01.295Z,52.09
2023-01-13T00:41:08.029Z,52.09
2023-01-13T00:51:15.281Z,52.05
2023-01-13T01:01:22.767Z,52.08
2023-01-13T01:11:29.989Z,52.11
2023-01-13T01:21:36.496Z,52.08
2023-01-13T01:31:43.545Z,52.04
2023-01-13T01:41:50.497Z,52.03
2023-01-13T01:51:57.548Z,52.00
2023-01-13T02:02:06.247Z,51.95
2023-01-13T02:12:13.943Z,51.93
2023-01-13T02:22:21.944Z,51.93
2023-01-13T02:32:28.628Z,51.92
2023-01-13T02:42:35.905Z,51.90
2023-01-13T02:52:42.780Z,51.85
2023-01-13T03:02:49.688Z,51.82
2023-01-13T03:12:56.923Z,51.80
2023-01-13T03:23:03.520Z,51.82
2023-01-13T03:33:10.894Z,51.78
2023-01-13T03:43:17.805Z,51.78
2023-01-13T03:53:24.571Z,51.73
2023-01-13T04:03:31.905Z,51.69
2023-01-13T04:13:38.679Z,51.72
2023-01-13T04:23:45.761Z,51.70
2023-01-13T04:33:53.248Z,51.69
2023-01-13T04:44:00.373Z,51.70
2023-01-13T04:54:07.898Z,51.70
2023-01-13T05:04:15.463Z,51.65
2023-01-13T05:14:22.054Z,51.63
2023-01-13T05:24:28.939Z,51.70
2023-01-13T05:34:36.524Z,51.82
2023-01-13T05:44:43.433Z,51.94
2023-01-13T05:54:50.582Z,52.01
2023-01-13T06:04:57.200Z,52.48
2023-01-13T06:15:03.359Z,53.14
2023-01-13T06:25:10.683Z,53.46
2023-01-13T06:35:17.918Z,53.57
2023-01-13T06:45:24.791Z,53.67
2023-01-13T06:55:31.369Z,53.66
2023-01-13T07:05:38.540Z,53.71
2023-01-13T07:15:45.458Z,53.75
2023-01-13T07:25:53.092Z,53.75
2023-01-13T07:35:59.861Z,53.80
2023-01-13T07:46:07.137Z,53.82
2023-01-13T07:56:14.161Z,53.57
2023-01-13T08:06:21.161Z,52.24
2023-01-13T08:16:28.029Z,49.11
2023-01-13T08:26:34.939Z,50.88
2023-01-13T08:36:42.256Z,51.35
2023-01-13T08:46:49.211Z,51.59
2023-01-13T08:56:56.237Z,51.46
2023-01-13T09:07:02.985Z,51.38
2023-01-13T09:17:10.108Z,51.41
2023-01-13T09:27:17.464Z,51.32
2023-01-13T09:37:24.448Z,51.44
2023-01-13T09:47:31.427Z,51.27
2023-01-13T09:57:38.655Z,51.00
2023-01-13T10:07:45.411Z,50.83
2023-01-13T10:17:52.716Z,50.84
2023-01-13T10:27:59.451Z,50.97
2023-01-13T10:38:06.573Z,50.88
2023-01-13T10:48:13.780Z,49.18
2023-01-13T10:58:21.099Z,50.31
2023-01-13T11:08:28.674Z,50.61
2023-01-13T11:18:35.893Z,50.85
2023-01-13T11:28:42.675Z,46.90
2023-01-13T11:38:50.015Z,48.38
2023-01-13T11:48:56.936Z,49.07
2023-01-13T11:59:03.932Z,49.34
2023-01-13T12:09:10.859Z,49.72
2023-01-13T12:19:17.985Z,50.06
2023-01-13T12:29:25.389Z,49.96
2023-01-13T12:39:31.995Z,50.22
2023-01-13T12:49:39.269Z,50.29
2023-01-13T12:59:46.052Z,50.14
2023-01-13T13:09:53.159Z,50.11
2023-01-13T13:19:59.646Z,50.05
2023-01-13T13:30:06.355Z,49.97
2023-01-13T13:40:13.682Z,49.84
2023-01-13T13:50:20.677Z,50.07
2023-01-13T14:00:27.591Z,49.99
2023-01-13T14:10:34.789Z,49.96
2023-01-13T14:20:42.947Z,49.91
2023-01-13T14:30:49.776Z,49.56
2023-01-13T14:40:56.659Z,49.60
2023-01-13T14:51:03.649Z,49.34
2023-01-13T15:01:10.783Z,49.27
2023-01-13T15:11:18.227Z,49.26
2023-01-13T15:21:25.683Z,49.07
2023-01-13T15:31:32.645Z,48.73
2023-01-13T15:41:39.615Z,48.70
2023-01-13T15:51:46.917Z,48.48
2023-01-13T16:01:54.914Z,48.38
2023-01-13T16:12:02.369Z,48.06
2023-01-13T16:22:09.067Z,48.06
2023-01-13T16:32:16.227Z,47.92
2023-01-13T16:42:23.329Z,47.83
2023-01-13T16:52:31.179Z,47.63
2023-01-13T17:02:38.226Z,47.31
2023-01-13T17:12:45.219Z,47.32
2023-01-13T17:22:58.187Z,47.48
2023-01-13T17:33:05.723Z,47.41
2023-01-13T17:43:13.577Z,47.42
2023-01-13T17:53:20.288Z,47.21
2023-01-13T18:03:27.794Z,47.27
2023-01-13T18:13:34.507Z,47.68
2023-01-13T18:23:41.650Z,47.73
2023-01-13T18:33:48.834Z,47.34
2023-01-13T18:43:55.918Z,47.57
2023-01-13T18:54:02.602Z,47.54
2023-01-13T19:04:10.031Z,47.36
2023-01-13T19:14:17.209Z,47.17
2023-01-13T19:24:24.697Z,47.12
2023-01-13T19:34:31.690Z,46.84
2023-01-13T19:44:38.948Z,46.87
2023-01-13T19:54:46.261Z,46.73
2023-01-13T20:04:54.054Z,46.47
2023-01-13T20:15:00.956Z,46.35
2023-01-13T20:25:08.289Z,46.51
2023-01-13T20:35:15.379Z,46.37
2023-01-13T20:45:21.979Z,46.20
2023-01-13T20:55:29.039Z,46.02
2023-01-13T21:05:36.727Z,46.02
2023-01-13T21:15:43.122Z,45.89
2023-01-13T21:25:50.109Z,45.76
2023-01-13T21:35:57.385Z,45.89
2023-01-13T21:46:05.695Z,45.86
2023-01-13T21:56:12.779Z,45.62
2023-01-13T22:06:19.920Z,45.65
2023-01-13T22:16:26.684Z,45.65
2023-01-13T22:26:33.911Z,45.69
2023-01-13T22:36:40.981Z,45.60
2023-01-13T22:46:47.885Z,45.64
2023-01-13T22:56:55.004Z,45.65
2023-01-13T23:07:02.121Z,45.50
2023-01-13T23:17:09.898Z,45.42
2023-01-13T23:27:17.523Z,45.38
2023-01-13T23:37:25.187Z,45.43
2023-01-13T23:47:32.379Z,45.32
2023-01-13T23:57:39.190Z,45.17
